Juneau, WI

9:09 AM CDT on August 22, 2017 (GMT -0500)
Dodge County

Weather History for KUNU - April, 2013

Change the Weather History Date:

Sunday, April 7, 2013

  Actual Average Record
Temperature  
Mean Temperature 42 °F -  
Max Temperature 50 °F 49 °F 87 °F (1991)
Min Temperature 35 °F 32 °F 9 °F (1982)
Degree Days  
Heating Degree Days 22    
Moisture  
Dew Point 32 °F    
Average Humidity 73    
Maximum Humidity 87    
Minimum Humidity 53    
Precipitation  
Precipitation 0.00 in - - ()
Sea Level Pressure  
Sea Level Pressure 29.86 in    
Wind  
Wind Speed 10 mph (WNW)    
Max Wind Speed 15 mph    
Max Gust Speed 30 mph    
Visibility 10 miles    
Events      
Averages and records for this station are not official NWS values.
T = Trace of Precipitation, MM = Missing Value Source: NWS Daily Summary

Daily Weather History Graph

Daily Weather History Graph

Search for Another Location

Airport or City:

Trip Planner

Search our weather history database for the weather conditions in past years. The results will help you decide how hot, cold, wet, or windy it might be!

Date:

Astronomy

Apr. 07, 2013 Rise Set
Actual Time 6:25 AM CDT 7:28 PM CDT
Civil Twilight 5:56 AM CDT 7:58 PM CDT
Nautical Twilight 5:21 AM CDT 8:33 PM CDT
Astronomical Twilight 4:44 AM CDT 9:09 PM CDT
Moon 4:47 AM CDT (4/7) 4:57 PM CDT (4/7)
Length of Visible Light 14h 01m
Length of Day
13h 03m
Waning Crescent, 8% of the Moon is Illuminated
Apr 7
Waning Crescent
Apr 10
New
Apr 18
First Quarter
Apr 25
Full
May 2
Last Quarter

Hourly Weather History & Observations

Time (CDT) Temp. Windchill Dew Point Humidity Pressure Visibility Wind Dir Wind Speed Gust Speed Precip Events Conditions
12:15 AM 50.0 °F - 46.4 °F 87% 29.55 in 10.0 mi West 10.4 mph - N/A   Overcast
12:35 AM 48.2 °F - 42.8 °F 82% 29.57 in 10.0 mi West 12.7 mph 25.3 mph N/A   Overcast
12:55 AM 46.4 °F 40.7 °F 42.8 °F 87% 29.57 in 10.0 mi West 12.7 mph 26.5 mph N/A   Overcast
1:15 AM 44.6 °F 38.1 °F 37.4 °F 76% 29.60 in 10.0 mi West 13.8 mph 29.9 mph N/A   Overcast
1:35 AM 42.8 °F 35.8 °F 37.4 °F 81% 29.62 in 10.0 mi West 13.8 mph 21.9 mph N/A   Overcast
1:55 AM 42.8 °F 36.6 °F 35.6 °F 76% 29.64 in 10.0 mi West 11.5 mph 25.3 mph N/A   Overcast
2:15 AM 41.0 °F 33.1 °F 33.8 °F 76% 29.64 in 10.0 mi West 15.0 mph 24.2 mph N/A   Overcast
2:35 AM 41.0 °F 33.5 °F 33.8 °F 76% 29.64 in 10.0 mi West 13.8 mph 21.9 mph N/A   Mostly Cloudy
2:55 AM 39.2 °F 31.6 °F 33.8 °F 81% 29.66 in 10.0 mi West 12.7 mph 20.7 mph N/A   Overcast
3:15 AM 39.2 °F 33.6 °F 33.8 °F 81% 29.67 in 10.0 mi West 8.1 mph 19.6 mph N/A   Overcast
3:35 AM 37.4 °F 28.5 °F 32.0 °F 81% 29.69 in 10.0 mi West 15.0 mph 28.8 mph N/A   Overcast
3:55 AM 37.4 °F 30.3 °F 32.0 °F 81% 29.70 in 10.0 mi West 10.4 mph 28.8 mph N/A   Overcast
4:15 AM 37.4 °F 30.8 °F 32.0 °F 81% 29.71 in 10.0 mi West 9.2 mph 17.3 mph N/A   Overcast
4:35 AM 37.4 °F 29.3 °F 32.0 °F 81% 29.72 in 10.0 mi West 12.7 mph 21.9 mph N/A   Overcast
4:55 AM 35.6 °F 27.5 °F 30.2 °F 81% 29.73 in 10.0 mi West 11.5 mph 19.6 mph N/A   Overcast
5:15 AM 35.6 °F 27.5 °F 30.2 °F 81% 29.74 in 10.0 mi West 11.5 mph 19.6 mph N/A   Overcast
5:35 AM 35.6 °F 29.9 °F 32.0 °F 87% 29.75 in 10.0 mi West 6.9 mph - N/A   Overcast
5:55 AM 35.6 °F 28.6 °F 30.2 °F 81% 29.76 in 10.0 mi West 9.2 mph 17.3 mph N/A   Overcast
6:15 AM 35.6 °F 28.6 °F 30.2 °F 81% 29.77 in 10.0 mi WNW 9.2 mph - N/A   Overcast
6:35 AM 35.6 °F 29.2 °F 30.2 °F 81% 29.78 in 10.0 mi West 8.1 mph 16.1 mph N/A   Overcast
6:55 AM 35.6 °F 29.9 °F 30.2 °F 81% 29.80 in 10.0 mi West 6.9 mph - N/A   Overcast
7:15 AM 35.6 °F 29.2 °F 30.2 °F 81% 29.82 in 10.0 mi West 8.1 mph - N/A   Overcast
7:35 AM 35.6 °F 28.6 °F 30.2 °F 81% 29.83 in 10.0 mi WNW 9.2 mph - N/A   Overcast
7:55 AM 35.6 °F 29.2 °F 30.2 °F 81% 29.85 in 10.0 mi WNW 8.1 mph 17.3 mph N/A   Overcast
8:15 AM 35.6 °F 28.0 °F 30.2 °F 81% 29.86 in 10.0 mi WNW 10.4 mph 18.4 mph N/A   Overcast
8:35 AM 35.6 °F 28.0 °F 30.2 °F 81% 29.87 in 10.0 mi NW 10.4 mph 18.4 mph N/A   Overcast
8:55 AM 35.6 °F 28.0 °F 30.2 °F 81% 29.88 in 10.0 mi NW 10.4 mph 19.6 mph N/A   Overcast
9:15 AM 35.6 °F 27.5 °F 30.2 °F 81% 29.89 in 10.0 mi WNW 11.5 mph 16.1 mph N/A   Overcast
9:35 AM 35.6 °F 29.2 °F 30.2 °F 81% 29.89 in 10.0 mi NW 8.1 mph - N/A   Overcast
9:55 AM 35.6 °F 28.6 °F 30.2 °F 81% 29.90 in 10.0 mi WNW 9.2 mph - N/A   Overcast
10:15 AM 35.6 °F 29.2 °F 30.2 °F 81% 29.91 in 10.0 mi WNW 8.1 mph - N/A   Overcast
10:35 AM 37.4 °F 29.8 °F 30.2 °F 75% 29.92 in 10.0 mi WNW 11.5 mph 16.1 mph N/A   Overcast
10:55 AM 37.4 °F 32.1 °F 30.2 °F 75% 29.93 in 10.0 mi WNW 6.9 mph - N/A   Overcast
11:15 AM 37.4 °F 32.1 °F 30.2 °F 75% 29.94 in 10.0 mi WNW 6.9 mph - N/A   Overcast
11:35 AM 37.4 °F 32.8 °F 30.2 °F 75% 29.95 in 10.0 mi West 5.8 mph - N/A   Overcast
11:55 AM 37.4 °F 32.1 °F 30.2 °F 75% 29.95 in 10.0 mi NW 6.9 mph - N/A   Overcast
12:15 PM 39.2 °F 34.2 °F 30.2 °F 70% 29.95 in 10.0 mi West 6.9 mph - N/A   Overcast
12:35 PM 39.2 °F 35.0 °F 30.2 °F 70% 29.96 in 10.0 mi West 5.8 mph - N/A   Overcast
12:55 PM 41.0 °F 37.1 °F 30.2 °F 65% 29.96 in 10.0 mi WNW 5.8 mph - N/A   Overcast
1:15 PM 41.0 °F 37.1 °F 30.2 °F 65% 29.96 in 10.0 mi WSW 5.8 mph - N/A   Overcast
1:35 PM 42.8 °F 38.6 °F 30.2 °F 61% 29.95 in 10.0 mi WNW 6.9 mph - N/A   Overcast
1:55 PM 42.8 °F 38.6 °F 30.2 °F 61% 29.95 in 10.0 mi NW 6.9 mph - N/A   Overcast
2:15 PM 44.6 °F 41.4 °F 30.2 °F 57% 29.96 in 10.0 mi West 5.8 mph - N/A   Overcast
2:35 PM 44.6 °F 40.7 °F 32.0 °F 61% 29.95 in 10.0 mi West 6.9 mph - N/A   Overcast
2:55 PM 44.6 °F 40.7 °F 30.2 °F 57% 29.95 in 10.0 mi NNW 6.9 mph - N/A   Mostly Cloudy
3:15 PM 44.6 °F 43.1 °F 30.2 °F 57% 29.95 in 10.0 mi NW 3.5 mph - N/A   Mostly Cloudy
3:35 PM 46.4 °F 45.2 °F 32.0 °F 57% 29.94 in 10.0 mi North 3.5 mph - N/A   Mostly Cloudy
3:55 PM 46.4 °F 45.2 °F 30.2 °F 53% 29.94 in 10.0 mi North 3.5 mph - N/A   Overcast
4:15 PM 46.4 °F - 30.2 °F 53% 29.94 in 10.0 mi Calm Calm - N/A   Overcast
4:35 PM 48.2 °F - 32.0 °F 54% 29.94 in 10.0 mi ENE 5.8 mph - N/A   Mostly Cloudy
4:55 PM 46.4 °F - 32.0 °F 57% 29.94 in 10.0 mi Calm Calm - N/A   Scattered Clouds
5:15 PM 48.2 °F - 32.0 °F 54% 29.94 in 10.0 mi North 3.5 mph - N/A   Clear
5:35 PM 46.4 °F 43.5 °F 32.0 °F 57% 29.94 in 10.0 mi East 5.8 mph - N/A   Clear
5:55 PM 46.4 °F 45.2 °F 32.0 °F 57% 29.94 in 10.0 mi East 3.5 mph - N/A   Clear
6:15 PM 46.4 °F 43.5 °F 32.0 °F 57% 29.94 in 10.0 mi East 5.8 mph - N/A   Clear
6:35 PM 46.4 °F 44.3 °F 32.0 °F 57% 29.94 in 10.0 mi East 4.6 mph - N/A   Clear
6:55 PM 46.4 °F 44.3 °F 32.0 °F 57% 29.94 in 10.0 mi East 4.6 mph - N/A   Clear
7:15 PM 44.6 °F 41.4 °F 32.0 °F 61% 29.93 in 10.0 mi East 5.8 mph - N/A   Clear
7:35 PM 44.6 °F 41.4 °F 32.0 °F 61% 29.93 in 10.0 mi East 5.8 mph - N/A   Clear
7:55 PM 42.8 °F 39.3 °F 32.0 °F 66% 29.94 in 10.0 mi East 5.8 mph - N/A   Clear
8:15 PM 42.8 °F 35.4 °F 32.0 °F 66% 29.94 in 10.0 mi ESE 15.0 mph 18.4 mph N/A   Clear
8:35 PM 39.2 °F 31.2 °F 32.0 °F 75% 29.95 in 10.0 mi ESE 13.8 mph - N/A   Clear
8:55 PM 37.4 °F 29.3 °F 32.0 °F 81% 29.95 in 10.0 mi East 12.7 mph - N/A   Clear
9:15 PM 37.4 °F 29.3 °F 32.0 °F 81% 29.96 in 10.0 mi ESE 12.7 mph - N/A   Clear
9:35 PM 35.6 °F 28.0 °F 30.2 °F 81% 29.96 in 10.0 mi ESE 10.4 mph - N/A   Clear
9:55 PM 35.6 °F 28.0 °F 30.2 °F 81% 29.96 in 10.0 mi ESE 10.4 mph - N/A   Clear
10:15 PM 35.6 °F 28.0 °F 30.2 °F 81% 29.96 in 10.0 mi ESE 10.4 mph - N/A   Clear
10:35 PM 35.6 °F 28.0 °F 30.2 °F 81% 29.95 in 10.0 mi ESE 10.4 mph - N/A   Clear
10:55 PM 35.6 °F 28.6 °F 30.2 °F 81% 29.94 in 10.0 mi ESE 9.2 mph - N/A   Clear
11:15 PM 35.6 °F 28.6 °F 30.2 °F 81% 29.93 in 10.0 mi ESE 9.2 mph - N/A   Clear
11:35 PM 35.6 °F 28.0 °F 30.2 °F 81% 29.92 in 10.0 mi East 10.4 mph - N/A   Clear
11:55 PM 35.6 °F 27.1 °F 30.2 °F 81% 29.91 in 10.0 mi East 12.7 mph - N/A   Clear